Time;durP1;ratioP1;P1;durP2;ratioP2;P2;SDS_P1;SDS_P2;PMS_P1;PMS_P2;Temp;Humidity;BMP_temperature;BMP_pressure;BME280_temperature;BME280_humidity;BME280_pressure;Samples;Min_cycle;Max_cycle;Signal;HPM_P1;HPM_P2
2023/04/06 00:00:46;;;;;;;1.90;1.77;;;24.30;45.80;;;;;;5073848;28;20287;-60
2023/04/06 00:03:34;;;;;;;2.42;2.13;;;24.30;45.70;;;;;;5074210;28;20204;-61
2023/04/06 00:06:24;;;;;;;2.67;1.60;;;24.40;45.20;;;;;;5074486;28;20216;-60
2023/04/06 00:09:12;;;;;;;1.50;1.40;;;24.40;45.60;;;;;;5073849;28;20705;-60
2023/04/06 00:12:00;;;;;;;2.03;1.58;;;24.50;45.50;;;;;;5073968;28;20271;-61
2023/04/06 00:14:48;;;;;;;2.05;1.45;;;24.20;48.90;;;;;;5073081;28;20275;-60
2023/04/06 00:17:36;;;;;;;1.63;1.52;;;24.40;45.40;;;;;;5073536;28;20266;-60
2023/04/06 00:20:25;;;;;;;1.88;1.77;;;24.30;45.30;;;;;;5074755;28;20203;-60
2023/04/06 00:23:14;;;;;;;1.85;1.75;;;24.30;45.40;;;;;;5074027;28;20283;-60
2023/04/06 00:26:02;;;;;;;2.60;1.90;;;24.20;45.00;;;;;;5072988;28;20228;-60
2023/04/06 00:28:52;;;;;;;1.83;1.40;;;24.20;45.60;;;;;;5073676;28;20224;-60
2023/04/06 00:31:40;;;;;;;1.80;1.70;;;24.10;45.60;;;;;;5073768;28;20280;-60
2023/04/06 00:34:28;;;;;;;3.30;1.50;;;24.10;45.70;;;;;;5072708;28;20280;-60
2023/04/06 00:37:16;;;;;;;1.65;1.55;;;24.00;45.10;;;;;;5073557;28;20300;-60
2023/04/06 00:40:07;;;;;;;1.55;1.40;;;23.90;45.70;;;;;;5074108;28;20232;-60
2023/04/06 00:42:55;;;;;;;1.52;1.42;;;23.80;46.50;;;;;;5073971;28;20205;-60
2023/04/06 00:45:43;;;;;;;2.00;1.90;;;23.90;45.30;;;;;;5073697;28;20610;-60
2023/04/06 00:48:32;;;;;;;1.60;1.48;;;24.00;45.80;;;;;;5072467;28;20221;-61
2023/04/06 00:51:20;;;;;;;1.88;1.33;;;24.00;45.70;;;;;;5073838;28;20610;-60
2023/04/06 00:54:08;;;;;;;1.80;1.70;;;24.10;45.40;;;;;;5073199;28;20201;-60
2023/04/06 00:56:58;;;;;;;1.90;1.70;;;24.20;45.00;;;;;;5072817;28;20632;-60
2023/04/06 00:59:46;;;;;;;1.83;1.73;;;24.20;45.50;;;;;;5073527;28;20697;-60
2023/04/06 01:02:34;;;;;;;1.70;1.60;;;24.20;45.50;;;;;;5073114;28;20204;-60
2023/04/06 01:05:22;;;;;;;1.40;1.30;;;24.10;45.00;;;;;;5073277;28;20245;-60
2023/04/06 01:08:11;;;;;;;3.20;1.67;;;24.00;45.60;;;;;;5071961;28;20220;-60
2023/04/06 01:11:00;;;;;;;1.45;1.35;;;24.00;45.60;;;;;;5072651;28;20199;-60
2023/04/06 01:13:50;;;;;;;2.53;1.50;;;24.00;45.60;;;;;;5071867;28;20209;-60
2023/04/06 01:16:38;;;;;;;1.70;1.60;;;24.10;45.00;;;;;;5072729;28;20358;-60
2023/04/06 01:19:26;;;;;;;1.63;1.48;;;24.10;45.50;;;;;;5073391;28;20197;-60
2023/04/06 01:22:16;;;;;;;1.30;1.20;;;24.20;45.50;;;;;;5072427;28;20299;-60
2023/04/06 01:25:05;;;;;;;2.03;1.83;;;24.40;44.80;;;;;;5072111;28;20224;-60
2023/04/06 01:27:53;;;;;;;6.13;1.77;;;24.40;45.40;;;;;;5072337;28;20565;-60
2023/04/06 01:30:42;;;;;;;1.83;1.65;;;24.40;45.30;;;;;;5073023;28;20197;-60
2023/04/06 01:33:30;;;;;;;2.28;2.00;;;24.40;45.20;;;;;;5072256;28;20635;-60
2023/04/06 01:36:18;;;;;;;1.60;1.50;;;24.50;44.70;;;;;;5072740;28;20216;-60
2023/04/06 01:39:07;;;;;;;1.88;1.77;;;24.40;45.20;;;;;;5072583;28;20207;-60
2023/04/06 01:41:56;;;;;;;1.70;1.60;;;24.40;45.20;;;;;;5071323;28;20200;-60
2023/04/06 01:44:44;;;;;;;1.83;1.73;;;24.30;48.80;;;;;;5071995;28;20197;-60
2023/04/06 01:47:32;;;;;;;2.08;1.95;;;24.20;45.30;;;;;;5072381;28;20203;-60
2023/04/06 01:50:20;;;;;;;1.70;1.60;;;24.10;45.30;;;;;;5071811;28;20611;-60
2023/04/06 01:53:08;;;;;;;2.13;1.63;;;24.20;45.50;;;;;;5071845;28;20596;-60
2023/04/06 01:55:57;;;;;;;1.67;1.58;;;24.20;45.00;;;;;;5080481;28;20243;-60
2023/04/06 01:58:45;;;;;;;1.48;1.38;;;24.10;45.40;;;;;;5097189;28;20188;-60
2023/04/06 02:01:33;;;;;;;2.63;2.20;;;24.10;45.50;;;;;;5112571;28;20277;-60
2023/04/06 02:04:21;;;;;;;1.90;1.73;;;24.00;45.40;;;;;;5112204;28;20723;-60
2023/04/06 02:07:09;;;;;;;1.70;1.60;;;24.00;45.00;;;;;;5112613;28;20236;-60
2023/04/06 02:09:57;;;;;;;1.50;1.40;;;24.00;45.50;;;;;;5112042;28;20355;-60
2023/04/06 02:12:47;;;;;;;2.30;1.85;;;24.00;45.40;;;;;;5111666;28;20199;-62
2023/04/06 02:15:35;;;;;;;2.75;1.70;;;24.10;45.00;;;;;;5111812;28;20641;-61
2023/04/06 02:18:23;;;;;;;2.20;2.10;;;24.20;45.60;;;;;;5111721;28;20590;-60
2023/04/06 02:21:11;;;;;;;2.10;1.90;;;24.10;45.40;;;;;;5112471;28;20191;-60
2023/04/06 02:23:59;;;;;;;1.88;1.77;;;24.10;45.40;;;;;;5111945;28;20199;-60
2023/04/06 02:26:47;;;;;;;1.85;1.42;;;24.10;44.90;;;;;;5112092;28;20615;-60
2023/04/06 02:29:36;;;;;;;2.45;1.92;;;24.20;45.50;;;;;;5111923;28;20227;-60
2023/04/06 02:32:24;;;;;;;2.63;1.85;;;24.10;45.30;;;;;;5112008;28;20493;-60
2023/04/06 02:35:13;;;;;;;1.88;1.63;;;24.20;44.80;;;;;;5111570;28;20215;-60
2023/04/06 02:38:01;;;;;;;1.50;1.40;;;24.20;45.20;;;;;;5112319;28;20202;-60
2023/04/06 02:40:49;;;;;;;4.03;2.38;;;24.30;45.20;;;;;;5112225;28;20670;-60
2023/04/06 02:43:37;;;;;;;1.77;1.67;;;24.30;45.20;;;;;;5112165;28;20671;-60
2023/04/06 02:46:26;;;;;;;1.88;1.77;;;24.30;44.70;;;;;;5111497;28;20654;-60
2023/04/06 02:49:14;;;;;;;2.00;1.80;;;24.20;45.20;;;;;;5111647;28;20222;-60
2023/04/06 02:52:02;;;;;;;1.98;1.88;;;24.10;45.20;;;;;;5111396;28;20548;-60
2023/04/06 02:54:51;;;;;;;2.05;1.95;;;23.80;50.40;;;;;;5111993;28;20282;-60
2023/04/06 02:57:39;;;;;;;2.85;2.60;;;23.80;45.40;;;;;;5110811;28;20282;-60
2023/04/06 03:00:27;;;;;;;2.35;2.05;;;23.70;45.50;;;;;;5112120;28;20194;-60
2023/04/06 03:03:16;;;;;;;1.70;1.52;;;23.70;45.70;;;;;;5111162;28;20278;-60
2023/04/06 03:06:05;;;;;;;1.73;1.63;;;23.60;45.20;;;;;;5112078;28;20262;-60
2023/04/06 03:08:53;;;;;;;2.08;1.88;;;23.70;45.80;;;;;;5111299;28;20191;-60
2023/04/06 03:11:41;;;;;;;1.58;1.48;;;23.90;45.70;;;;;;5114843;28;20195;-60
2023/04/06 03:14:29;;;;;;;1.92;1.83;;;23.90;45.70;;;;;;5115084;28;20252;-60
2023/04/06 03:17:17;;;;;;;2.67;2.47;;;24.00;44.90;;;;;;5115402;28;20205;-60
2023/04/06 03:20:07;;;;;;;2.40;2.25;;;24.00;45.20;;;;;;5115317;28;20274;-60
2023/04/06 03:22:55;;;;;;;2.72;2.53;;;24.00;45.30;;;;;;5114510;28;20583;-60
2023/04/06 03:25:43;;;;;;;1.83;1.73;;;24.10;44.70;;;;;;5115678;28;20231;-60
2023/04/06 03:28:31;;;;;;;2.85;2.63;;;24.10;45.20;;;;;;5115067;28;20278;-60
2023/04/06 03:31:19;;;;;;;2.50;2.28;;;24.10;45.20;;;;;;5115346;28;20747;-60
2023/04/06 03:34:07;;;;;;;4.45;2.10;;;24.10;45.20;;;;;;5115351;28;20577;-60
2023/04/06 03:36:57;;;;;;;3.08;2.10;;;24.10;44.80;;;;;;5115174;28;20216;-60
2023/04/06 03:39:57;;;;;;;1.50;1.40;;;24.20;45.30;;;;;;5115887;28;20191;-60
2023/04/06 03:42:45;;;;;;;2.20;2.00;;;24.10;45.20;;;;;;5114046;28;20199;-60
2023/04/06 03:45:33;;;;;;;2.20;1.75;;;24.10;44.70;;;;;;5115020;28;20233;-60
2023/04/06 03:48:21;;;;;;;2.55;2.22;;;24.10;45.20;;;;;;5114322;28;20203;-60
2023/04/06 03:51:09;;;;;;;2.35;2.08;;;24.20;45.20;;;;;;5114209;28;20218;-60
2023/04/06 03:53:58;;;;;;;1.77;1.67;;;24.20;45.20;;;;;;5115296;28;20196;-60
2023/04/06 03:56:46;;;;;;;2.40;2.15;;;24.20;44.70;;;;;;5113889;28;20219;-60
2023/04/06 03:59:35;;;;;;;3.80;2.30;;;24.30;45.10;;;;;;5114271;28;20686;-60
2023/04/06 04:02:23;;;;;;;2.40;2.20;;;24.30;45.10;;;;;;5113667;28;20202;-60
2023/04/06 04:05:11;;;;;;;2.25;2.05;;;24.20;44.50;;;;;;5115215;28;20219;-60
2023/04/06 04:07:59;;;;;;;2.47;2.28;;;24.20;45.00;;;;;;5114477;28;20199;-60
2023/04/06 04:10:48;;;;;;;1.70;1.60;;;24.10;45.10;;;;;;5114961;28;20294;-60
2023/04/06 04:13:36;;;;;;;4.47;2.00;;;24.00;45.10;;;;;;5114722;28;20683;-60
2023/04/06 04:16:24;;;;;;;2.80;2.60;;;24.00;44.70;;;;;;5113894;28;20219;-60
2023/04/06 04:19:13;;;;;;;2.65;2.35;;;24.00;45.30;;;;;;5114773;28;20567;-60
2023/04/06 04:22:04;;;;;;;2.60;2.25;;;23.80;45.30;;;;;;5112541;28;20191;-60
2023/04/06 04:24:52;;;;;;;2.03;1.85;;;23.90;45.40;;;;;;5113963;28;20215;-60
2023/04/06 04:27:41;;;;;;;2.40;2.20;;;23.90;45.20;;;;;;5114757;28;20210;-59
2023/04/06 04:30:29;;;;;;;2.47;2.08;;;24.00;45.20;;;;;;5113425;28;20219;-59
2023/04/06 04:33:17;;;;;;;2.42;2.22;;;24.10;45.30;;;;;;5112716;28;20207;-59
2023/04/06 04:36:06;;;;;;;1.80;1.63;;;24.00;44.60;;;;;;5113971;28;20220;-60
2023/04/06 04:38:54;;;;;;;2.50;2.30;;;24.00;45.10;;;;;;5114329;28;20205;-60
2023/04/06 04:41:42;;;;;;;3.50;2.15;;;24.10;45.00;;;;;;5112698;28;20191;-60
2023/04/06 04:44:31;;;;;;;4.38;3.35;;;;;;;;;;5113747;28;20208;-60
2023/04/06 04:47:19;;;;;;;2.75;2.22;;;24.00;44.50;;;;;;5113586;28;20199;-59
2023/04/06 04:50:08;;;;;;;2.90;2.70;;;23.90;45.10;;;;;;5113426;28;20215;-60
2023/04/06 04:52:56;;;;;;;3.15;2.72;;;23.80;45.30;;;;;;5113496;28;20324;-60
2023/04/06 04:55:44;;;;;;;4.68;3.10;;;23.60;44.70;;;;;;5113458;28;20717;-60
2023/04/06 04:58:32;;;;;;;5.63;3.88;;;23.70;45.40;;;;;;5113567;28;20274;-59
2023/04/06 05:01:21;;;;;;;3.63;2.92;;;23.60;45.40;;;;;;5113568;28;20274;-59
2023/04/06 05:04:10;;;;;;;3.03;2.50;;;23.70;45.40;;;;;;5113689;28;20698;-59
2023/04/06 05:07:05;;;;;;;3.10;2.70;;;23.80;44.70;;;;;;5112741;28;20272;-59
2023/04/06 05:09:53;;;;;;;2.22;2.05;;;23.90;45.20;;;;;;5112974;28;20286;-59
2023/04/06 05:12:41;;;;;;;2.65;2.30;;;24.00;45.10;;;;;;5112846;28;20638;-59
2023/04/06 05:15:29;;;;;;;3.33;2.33;;;24.10;44.50;;;;;;5113804;28;20325;-59
2023/04/06 05:18:19;;;;;;;5.68;2.72;;;24.10;45.00;;;;;;5113122;28;20198;-59
2023/04/06 05:21:07;;;;;;;3.50;2.10;;;24.10;45.00;;;;;;5112921;28;20195;-60
2023/04/06 05:23:55;;;;;;;4.47;2.60;;;24.10;45.10;;;;;;5113582;28;20205;-60
2023/04/06 05:26:43;;;;;;;3.80;2.55;;;24.10;44.50;;;;;;5112957;28;20235;-60
2023/04/06 05:29:31;;;;;;;2.97;2.67;;;24.10;45.00;;;;;;5113454;28;20313;-59
2023/04/06 05:32:21;;;;;;;3.83;2.35;;;24.20;45.00;;;;;;5112367;28;20223;-60
2023/04/06 05:35:12;;;;;;;3.10;2.90;;;24.10;44.50;;;;;;5112343;28;20215;-60
2023/04/06 05:38:00;;;;;;;5.07;2.80;;;24.10;45.00;;;;;;5112293;28;20195;-60
2023/04/06 05:40:48;;;;;;;2.92;2.40;;;24.20;45.10;;;;;;5113057;28;20207;-60
2023/04/06 05:43:37;;;;;;;3.08;2.22;;;24.20;44.90;;;;;;5113117;28;20192;-60
2023/04/06 05:46:25;;;;;;;6.28;3.13;;;24.20;44.40;;;;;;5112209;28;20215;-60
2023/04/06 05:49:13;;;;;;;3.63;2.45;;;24.20;44.90;;;;;;5113235;28;20198;-60
2023/04/06 05:52:03;;;;;;;2.40;2.20;;;24.30;44.90;;;;;;5112701;28;20698;-60
2023/04/06 05:54:52;;;;;;;6.18;2.97;;;24.20;51.70;;;;;;5112650;28;20307;-60
2023/04/06 05:57:40;;;;;;;2.63;2.42;;;24.20;44.90;;;;;;5111875;28;20278;-60
2023/04/06 06:00:28;;;;;;;4.55;2.78;;;24.20;45.00;;;;;;5112892;28;20195;-60
2023/04/06 06:03:16;;;;;;;10.73;3.15;;;24.10;44.80;;;;;;5083938;28;20208;-60
2023/04/06 06:06:05;;;;;;;3.08;2.38;;;24.10;44.60;;;;;;5102673;28;20222;-60
2023/04/06 06:08:55;;;;;;;2.80;2.58;;;24.10;45.10;;;;;;5100426;28;20573;-60
2023/04/06 06:11:43;;;;;;;4.90;2.70;;;24.10;45.00;;;;;;5090878;28;20392;-60
2023/04/06 06:14:31;;;;;;;2.92;2.40;;;24.10;45.00;;;;;;5092448;28;20201;-59
2023/04/06 06:17:19;;;;;;;3.95;2.40;;;24.00;44.60;;;;;;5078118;28;20271;-60
2023/04/06 06:20:09;;;;;;;6.65;3.10;;;24.00;45.10;;;;;;5108153;28;20680;-60
2023/04/06 06:22:57;;;;;;;6.28;2.88;;;24.00;45.40;;;;;;5090210;28;20192;-60
2023/04/06 06:25:46;;;;;;;7.50;4.30;;;24.20;44.90;;;;;;5077179;28;20260;-59
2023/04/06 06:28:34;;;;;;;3.55;2.95;;;24.20;45.30;;;;;;5072090;28;20232;-60
2023/04/06 06:31:22;;;;;;;4.43;2.90;;;24.30;45.20;;;;;;5072401;28;20419;-59
2023/04/06 06:34:12;;;;;;;2.35;2.05;;;24.40;45.20;;;;;;5090661;28;20196;-59
2023/04/06 06:37:01;;;;;;;3.40;2.60;;;24.50;44.80;;;;;;5090729;28;20192;-60
2023/04/06 06:39:49;;;;;;;5.00;2.83;;;24.60;45.20;;;;;;5085738;28;20206;-60
2023/04/06 06:42:39;;;;;;;13.98;12.40;;;24.50;45.20;;;;;;5070421;28;20567;-60
2023/04/06 06:45:29;;;;;;;4.57;4.18;;;24.40;44.70;;;;;;5086475;28;20244;-60
2023/04/06 06:48:17;;;;;;;3.40;3.08;;;24.40;45.30;;;;;;5071015;28;20203;-59
2023/04/06 06:51:05;;;;;;;4.03;2.78;;;24.40;45.30;;;;;;5070588;28;20317;-60
2023/04/06 06:53:53;;;;;;;2.78;2.53;;;24.30;45.40;;;;;;5070782;28;20581;-60
2023/04/06 06:56:41;;;;;;;3.33;2.50;;;24.30;45.00;;;;;;5069913;28;20299;-59
2023/04/06 06:59:30;;;;;;;2.80;2.40;;;24.40;45.50;;;;;;5089737;28;20196;-59
2023/04/06 07:02:19;;;;;;;3.00;2.20;;;24.50;45.50;;;;;;5090106;28;20197;-59
2023/04/06 07:05:07;;;;;;;3.28;2.95;;;24.70;44.80;;;;;;5071141;28;20575;-59
2023/04/06 07:08:11;;;;;;;2.28;2.17;;;24.70;45.30;;;;;;5070128;28;20199;-60
2023/04/06 07:10:59;;;;;;;4.47;2.17;;;24.80;45.20;;;;;;5070319;28;20345;-60
2023/04/06 07:13:47;;;;;;;2.45;2.25;;;24.90;45.20;;;;;;5070660;28;20204;-60
2023/04/06 07:16:36;;;;;;;2.33;2.10;;;24.90;44.70;;;;;;5073750;28;20305;-60
2023/04/06 07:19:24;;;;;;;3.70;2.00;;;24.90;45.30;;;;;;5087434;28;20211;-60
2023/04/06 07:22:13;;;;;;;3.67;2.60;;;24.90;45.30;;;;;;5090711;28;20294;-60
2023/04/06 07:25:01;;;;;;;2.45;2.25;;;24.80;44.90;;;;;;5090119;28;20240;-60
2023/04/06 07:27:49;;;;;;;3.65;2.20;;;24.80;45.50;;;;;;5090587;28;20662;-60
2023/04/06 07:30:38;;;;;;;2.95;2.40;;;24.70;45.50;;;;;;5084655;28;20641;-60
2023/04/06 07:33:29;;;;;;;2.28;2.08;;;24.80;45.70;;;;;;5069547;28;20304;-60
2023/04/06 07:36:18;;;;;;;3.70;2.22;;;24.80;45.20;;;;;;5069739;28;20221;-59
2023/04/06 07:39:07;;;;;;;2.40;2.20;;;24.70;45.60;;;;;;5090204;28;20206;-60
2023/04/06 07:41:55;;;;;;;2.10;2.00;;;24.80;45.70;;;;;;5090489;28;20196;-60
2023/04/06 07:44:43;;;;;;;4.38;2.70;;;25.20;49.10;;;;;;5090673;28;20277;-59
2023/04/06 07:47:32;;;;;;;3.72;2.03;;;24.80;45.70;;;;;;5085541;28;20823;-59
2023/04/06 07:50:22;;;;;;;4.03;2.00;;;24.80;45.70;;;;;;5070769;28;20197;-60
2023/04/06 07:53:10;;;;;;;2.50;2.28;;;24.80;45.70;;;;;;5070101;28;20223;-60
2023/04/06 07:56:00;;;;;;;2.47;2.22;;;24.90;45.30;;;;;;5070198;28;20216;-60
2023/04/06 07:58:50;;;;;;;2.45;2.25;;;24.90;45.70;;;;;;5079076;28;20287;-60
2023/04/06 08:01:41;;;;;;;1.88;1.75;;;24.80;46.30;;;;;;5078755;28;20197;-60
2023/04/06 08:04:30;;;;;;;3.25;1.98;;;24.80;45.70;;;;;;5073906;28;20200;-60
2023/04/06 08:07:19;;;;;;;3.85;2.47;;;24.70;45.20;;;;;;5072978;28;20279;-59
2023/04/06 08:10:07;;;;;;;3.53;2.10;;;24.80;45.80;;;;;;5073496;28;20196;-60
2023/04/06 08:12:56;;;;;;;2.15;1.95;;;24.80;45.80;;;;;;5073166;28;20243;-59
2023/04/06 08:15:44;;;;;;;2.20;2.10;;;24.80;45.20;;;;;;5080595;28;20745;-60
2023/04/06 08:18:32;;;;;;;2.22;2.03;;;24.90;45.80;;;;;;5093952;28;20203;-60
2023/04/06 08:21:20;;;;;;;3.63;2.20;;;24.90;45.70;;;;;;5093896;28;20300;-61
2023/04/06 08:24:10;;;;;;;2.75;2.55;;;25.00;45.80;;;;;;5094304;28;20281;-60
2023/04/06 08:26:58;;;;;;;2.13;1.92;;;25.00;45.20;;;;;;5093571;28;20571;-59
2023/04/06 08:29:46;;;;;;;2.65;2.00;;;25.00;45.80;;;;;;5094127;28;20208;-60
2023/04/06 08:32:35;;;;;;;2.03;1.77;;;25.00;45.80;;;;;;5093119;28;20226;-60
2023/04/06 08:35:23;;;;;;;2.55;2.20;;;24.90;45.30;;;;;;5093259;28;20220;-60
2023/04/06 08:38:11;;;;;;;2.03;1.80;;;24.90;45.90;;;;;;5092372;28;20200;-60
2023/04/06 08:41:01;;;;;;;1.73;1.63;;;24.80;45.90;;;;;;5093450;28;20200;-60
2023/04/06 08:43:52;;;;;;;2.30;2.10;;;24.70;46.00;;;;;;5090091;28;20196;-60
2023/04/06 08:46:40;;;;;;;3.03;1.60;;;24.60;45.50;;;;;;5093458;28;20231;-59
2023/04/06 08:49:29;;;;;;;1.88;1.67;;;24.60;46.00;;;;;;5093034;28;20204;-60
2023/04/06 08:52:19;;;;;;;2.42;1.80;;;24.70;46.20;;;;;;5093058;28;20231;-59
2023/04/06 08:55:07;;;;;;;2.30;2.10;;;24.80;45.60;;;;;;5093096;28;20216;-60
2023/04/06 08:57:57;;;;;;;2.63;1.40;;;24.80;46.10;;;;;;5080445;28;20245;-60
2023/04/06 09:00:46;;;;;;;1.70;1.60;;;24.90;45.90;;;;;;5073408;28;20279;-59
2023/04/06 09:03:39;;;;;;;2.10;1.70;;;25.00;45.80;;;;;;5072223;28;20201;-60
2023/04/06 09:06:28;;;;;;;3.15;1.75;;;25.10;45.10;;;;;;5084812;28;20306;-59
2023/04/06 09:09:16;;;;;;;1.92;1.83;;;25.10;45.50;;;;;;5086866;28;20228;-60
2023/04/06 09:12:05;;;;;;;1.63;1.52;;;25.20;45.60;;;;;;5072140;28;20294;-60
2023/04/06 09:14:55;;;;;;;1.85;1.50;;;25.20;45.00;;;;;;5083244;28;20735;-60
2023/04/06 09:17:46;;;;;;;1.70;1.60;;;25.20;45.50;;;;;;5092350;28;20207;-60
2023/04/06 09:20:34;;;;;;;2.35;1.70;;;25.20;45.40;;;;;;5083445;28;20844;-60
2023/04/06 09:23:23;;;;;;;2.45;1.75;;;25.20;45.40;;;;;;5095208;28;20193;-61
2023/04/06 09:26:13;;;;;;;1.80;1.50;;;25.20;44.80;;;;;;5078310;28;20688;-62
2023/04/06 09:29:03;;;;;;;1.77;1.50;;;25.30;45.50;;;;;;5080260;28;20677;-62
2023/04/06 09:31:52;;;;;;;1.67;1.58;;;25.20;45.40;;;;;;5100304;28;20274;-63
2023/04/06 09:34:41;;;;;;;1.85;1.50;;;25.10;45.00;;;;;;5092872;28;20219;-62
2023/04/06 09:37:29;;;;;;;1.88;1.38;;;25.20;45.50;;;;;;5091872;28;20203;-61
2023/04/06 09:40:18;;;;;;;2.05;1.60;;;25.20;45.40;;;;;;5091606;28;20283;-61
2023/04/06 09:43:06;;;;;;;1.42;1.33;;;25.20;45.30;;;;;;5091991;28;20297;-61
2023/04/06 09:45:56;;;;;;;2.10;1.90;;;25.30;44.80;;;;;;5091841;28;20464;-61
2023/04/06 09:48:46;;;;;;;2.72;1.50;;;25.20;45.20;;;;;;5084140;28;20230;-61
2023/04/06 09:51:38;;;;;;;1.80;1.60;;;25.20;45.20;;;;;;5105318;28;20583;-61
2023/04/06 09:54:30;;;;;;;1.42;1.33;;;25.20;45.40;;;;;;5084767;28;20245;-61
2023/04/06 09:57:25;;;;;;;1.45;1.35;;;25.10;45.00;;;;;;5077086;28;20258;-61
2023/04/06 10:00:19;;;;;;;1.65;1.55;;;25.00;45.60;;;;;;5072276;28;20236;-61
2023/04/06 10:03:26;;;;;;;2.80;1.92;;;25.00;45.50;;;;;;5071571;28;20223;-61
2023/04/06 10:06:22;;;;;;;1.67;1.58;;;25.00;45.60;;;;;;5072566;28;20227;-61
2023/04/06 10:09:10;;;;;;;1.90;1.35;;;25.00;45.60;;;;;;5072805;28;20209;-61
2023/04/06 10:11:59;;;;;;;1.48;1.38;;;25.10;45.50;;;;;;5071376;28;20275;-62
2023/04/06 10:14:48;;;;;;;1.60;1.50;;;25.20;48.40;;;;;;5071741;28;20989;-61
2023/04/06 10:17:36;;;;;;;1.98;1.33;;;25.20;45.40;;;;;;5071361;28;20196;-61
2023/04/06 10:20:29;;;;;;;1.50;1.15;;;25.20;45.30;;;;;;5070217;28;20692;-61
2023/04/06 10:23:27;;;;;;;3.33;1.63;;;25.10;45.40;;;;;;5071579;28;20208;-61
2023/04/06 10:26:17;;;;;;;1.88;1.38;;;25.10;44.80;;;;;;5104956;22;20705;-69
2023/04/06 10:29:06;;;;;;;1.83;1.10;;;25.10;45.30;;;;;;5113342;28;20274;-70
2023/04/06 10:31:55;;;;;;;1.45;1.20;;;25.10;45.40;;;;;;5111588;28;20731;-67
2023/04/06 10:34:43;;;;;;;1.42;1.33;;;25.20;45.50;;;;;;5113644;28;20211;-68
2023/04/06 10:37:47;;;;;;;1.30;1.20;;;25.30;45.50;;;;;;5112013;28;20661;-68
2023/04/06 10:40:39;;;;;;;1.42;1.33;;;25.40;45.40;;;;;;5115963;28;20286;-67
2023/04/06 10:43:27;;;;;;;1.58;1.48;;;25.40;45.20;;;;;;5113112;28;20198;-65
2023/04/06 10:46:26;;;;;;;1.58;1.48;;;25.50;45.00;;;;;;5102564;28;20584;-69
2023/04/06 10:49:14;;;;;;;1.30;1.20;;;25.50;45.10;;;;;;5104087;28;20271;-67
2023/04/06 10:52:02;;;;;;;1.42;1.33;;;25.60;45.10;;;;;;5111450;28;20204;-68
2023/04/06 10:54:51;;;;;;;1.67;1.38;;;25.50;45.10;;;;;;5106721;28;20337;-67
2023/04/06 10:57:41;;;;;;;2.35;1.13;;;25.60;45.10;;;;;;5105281;28;20732;-68
2023/04/06 11:00:29;;;;;;;1.60;1.50;;;25.60;45.10;;;;;;5112146;28;20690;-68
2023/04/06 11:03:44;;;;;;;1.90;1.30;;;25.50;45.70;;;;;;5112496;28;20277;-68
2023/04/06 11:06:33;;;;;;;1.48;1.38;;;25.50;45.10;;;;;;5112230;28;20215;-68
2023/04/06 11:09:26;;;;;;;1.38;1.27;;;25.50;45.10;;;;;;5112001;28;20686;-68
2023/04/06 11:12:22;;;;;;;1.90;1.73;;;25.60;45.10;;;;;;5112812;28;20199;-68
2023/04/06 11:15:12;;;;;;;2.85;1.55;;;25.50;45.00;;;;;;5112004;28;20241;-67
2023/04/06 11:18:04;;;;;;;1.77;1.67;;;25.50;45.00;;;;;;5110313;28;20284;-68
2023/04/06 11:20:52;;;;;;;1.52;1.42;;;25.50;45.00;;;;;;5112721;28;20205;-68
2023/04/06 11:23:41;;;;;;;1.50;1.40;;;25.40;45.00;;;;;;5112412;28;20547;-68
2023/04/06 11:26:29;;;;;;;3.05;1.50;;;25.50;45.00;;;;;;5111877;28;20698;-68
2023/04/06 11:29:18;;;;;;;1.30;1.20;;;25.60;45.00;;;;;;5112085;28;20317;-68
2023/04/06 11:32:08;;;;;;;2.35;1.27;;;25.60;44.90;;;;;;5115647;28;20717;-68
2023/04/06 11:34:59;;;;;;;3.15;1.65;;;25.60;45.00;;;;;;5116565;28;20290;-68
2023/04/06 11:37:47;;;;;;;1.60;1.42;;;25.60;44.90;;;;;;5114421;28;20292;-68
2023/04/06 11:40:35;;;;;;;2.58;2.22;;;25.60;44.90;;;;;;5116106;28;20210;-68
2023/04/06 11:43:27;;;;;;;1.60;1.50;;;25.60;44.90;;;;;;5116189;28;20642;-68
2023/04/06 11:46:19;;;;;;;1.30;1.20;;;25.50;44.90;;;;;;5115223;28;20219;-68
2023/04/06 11:49:08;;;;;;;1.40;1.23;;;25.40;44.80;;;;;;5116269;28;20195;-68
2023/04/06 11:51:57;;;;;;;1.20;1.10;;;25.60;45.00;;;;;;5116302;28;20278;-68
2023/04/06 11:54:45;;;;;;;2.13;1.30;;;25.30;45.00;;;;;;5115371;28;20290;-67
2023/04/06 11:57:34;;;;;;;1.25;1.10;;;25.20;45.00;;;;;;5103711;28;20281;-67
2023/04/06 12:00:23;;;;;;;1.30;1.20;;;25.10;45.20;;;;;;5094980;28;20200;-68
2023/04/06 12:03:11;;;;;;;80.05;12.82;;;25.00;45.30;;;;;;5094687;28;20201;-68
2023/04/06 12:06:00;;;;;;;87.60;16.90;;;25.00;45.30;;;;;;5095547;28;20212;-68
2023/04/06 12:08:48;;;;;;;44.55;9.82;;;25.10;45.30;;;;;;5095494;28;20199;-68
2023/04/06 12:11:37;;;;;;;31.63;7.47;;;25.20;45.20;;;;;;5094406;28;20285;-68
2023/04/06 12:14:25;;;;;;;27.67;5.82;;;25.30;45.10;;;;;;5095755;28;20212;-67
2023/04/06 12:17:13;;;;;;;18.52;4.65;;;25.40;45.00;;;;;;5095293;28;20265;-68
2023/04/06 12:20:01;;;;;;;17.33;4.93;;;25.50;44.90;;;;;;5094204;28;20215;-68
2023/04/06 12:23:10;;;;;;;12.02;4.68;;;25.50;44.80;;;;;;5094915;28;20217;-68
2023/04/06 12:25:58;;;;;;;16.75;3.70;;;25.50;44.90;;;;;;5095481;28;20639;-68
2023/04/06 12:28:46;;;;;;;11.25;3.88;;;25.50;44.80;;;;;;5094990;28;20240;-68
2023/04/06 12:31:38;;;;;;;12.98;4.43;;;25.50;44.80;;;;;;5094305;28;20208;-68
2023/04/06 12:34:27;;;;;;;11.93;4.05;;;25.50;44.80;;;;;;5094596;28;20588;-68
2023/04/06 12:37:16;;;;;;;16.35;3.58;;;25.50;44.80;;;;;;5094890;28;20296;-68
2023/04/06 12:40:07;;;;;;;16.48;3.47;;;25.50;44.90;;;;;;5095953;28;20204;-68
2023/04/06 12:42:55;;;;;;;19.95;4.10;;;25.50;44.90;;;;;;5093667;28;20287;-68
2023/04/06 12:45:43;;;;;;;11.13;3.40;;;25.60;46.80;;;;;;5094608;28;20192;-68
2023/04/06 12:48:32;;;;;;;12.57;3.33;;;25.60;44.70;;;;;;5094956;28;20227;-68
2023/04/06 12:51:20;;;;;;;9.75;3.00;;;25.60;44.70;;;;;;5094087;28;20275;-68
2023/04/06 12:54:08;;;;;;;11.93;2.78;;;25.60;44.70;;;;;;5094256;28;20208;-68
2023/04/06 12:56:57;;;;;;;8.60;2.60;;;25.70;44.60;;;;;;5100451;28;20323;-67
2023/04/06 12:59:46;;;;;;;7.60;2.92;;;25.70;44.70;;;;;;5113865;28;20583;-68
2023/04/06 13:02:34;;;;;;;6.50;3.17;;;25.70;44.60;;;;;;5113914;28;20210;-68
2023/04/06 13:05:22;;;;;;;6.57;2.78;;;25.70;44.60;;;;;;5113585;28;20206;-68
2023/04/06 13:08:10;;;;;;;4.55;2.75;;;25.70;44.60;;;;;;5113828;28;20199;-68
2023/04/06 13:10:58;;;;;;;7.07;2.42;;;25.70;44.70;;;;;;5113009;28;20641;-68
2023/04/06 13:13:47;;;;;;;7.32;2.35;;;25.60;44.70;;;;;;5113354;28;20756;-68
2023/04/06 13:16:36;;;;;;;9.45;2.40;;;25.60;44.60;;;;;;5114522;28;20219;-67
2023/04/06 13:19:25;;;;;;;10.07;2.25;;;25.70;44.70;;;;;;5113888;28;20211;-68
2023/04/06 13:22:13;;;;;;;5.65;2.00;;;25.60;44.70;;;;;;5114226;27;20201;-68
2023/04/06 13:25:01;;;;;;;4.68;2.28;;;25.70;44.80;;;;;;5113904;28;20195;-68
2023/04/06 13:27:49;;;;;;;13.68;3.30;;;25.60;44.60;;;;;;5113531;28;20302;-68
2023/04/06 13:30:39;;;;;;;9.20;2.55;;;25.70;44.70;;;;;;5113855;28;20218;-68
2023/04/06 13:33:27;;;;;;;5.13;2.33;;;25.70;44.60;;;;;;5113798;28;20667;-68
2023/04/06 13:36:16;;;;;;;13.52;2.95;;;25.60;44.00;;;;;;5113712;28;20223;-68
2023/04/06 13:39:05;;;;;;;4.55;1.88;;;25.70;44.80;;;;;;5113410;28;20680;-68
2023/04/06 13:41:55;;;;;;;7.47;2.53;;;25.50;44.80;;;;;;5113254;28;20268;-68
2023/04/06 13:44:43;;;;;;;5.47;1.85;;;25.40;44.90;;;;;;5111768;28;20808;-68
2023/04/06 13:47:32;;;;;;;4.57;1.95;;;25.40;45.00;;;;;;5112968;28;20320;-67
2023/04/06 13:50:21;;;;;;;5.90;2.47;;;25.40;45.00;;;;;;5112408;28;20278;-68
2023/04/06 13:53:10;;;;;;;5.00;2.20;;;25.40;45.00;;;;;;5112826;28;20270;-67
2023/04/06 13:55:58;;;;;;;4.68;1.70;;;25.40;45.00;;;;;;5111967;28;20275;-68
2023/04/06 13:58:46;;;;;;;2.75;2.08;;;25.60;45.00;;;;;;5112327;28;20709;-68
2023/04/06 14:01:34;;;;;;;5.25;1.92;;;25.70;44.90;;;;;;5112689;28;20207;-68
2023/04/06 14:04:23;;;;;;;6.38;2.30;;;25.70;44.80;;;;;;5111434;28;20199;-68
2023/04/06 14:07:11;;;;;;;4.22;2.38;;;25.70;44.70;;;;;;5110752;28;20219;-68
2023/04/06 14:10:00;;;;;;;5.68;2.28;;;25.80;44.60;;;;;;5112586;28;20264;-68
2023/04/06 14:12:48;;;;;;;4.88;1.88;;;25.90;44.60;;;;;;5112812;28;20202;-68
2023/04/06 14:15:36;;;;;;;6.38;2.28;;;26.20;46.20;;;;;;5111747;28;20302;-68
2023/04/06 14:18:24;;;;;;;8.02;2.60;;;26.00;44.40;;;;;;5112992;28;20199;-68
2023/04/06 14:21:14;;;;;;;2.95;1.67;;;26.00;44.30;;;;;;5111864;28;20202;-68
2023/04/06 14:24:02;;;;;;;5.13;2.28;;;26.10;44.40;;;;;;5112430;28;20195;-68
2023/04/06 14:26:50;;;;;;;4.50;2.40;;;26.10;44.40;;;;;;5112779;28;20220;-66
2023/04/06 14:29:39;;;;;;;2.97;1.52;;;26.20;44.50;;;;;;5112794;28;20204;-66
2023/04/06 14:32:27;;;;;;;4.45;1.90;;;26.10;44.40;;;;;;5112342;28;20191;-66
2023/04/06 14:35:15;;;;;;;3.83;1.85;;;26.00;44.30;;;;;;5112063;28;20218;-68
2023/04/06 14:38:05;;;;;;;3.78;1.65;;;26.10;44.50;;;;;;5112241;28;20199;-66